Time;durP1;ratioP1;P1;durP2;ratioP2;P2;SDS_P1;SDS_P2;PMS_P1;PMS_P2;Temp;Humidity;BMP_temperature;BMP_pressure;BME280_temperature;BME280_humidity;BME280_pressure;Samples;Min_cycle;Max_cycle;Signal;HPM_P1;HPM_P2
2023/07/20 05:57:43;;;;;;;;;3.00;3.00;;;;;18.84;56.30;101388.19;4878852;29;45570;-94
2023/07/20 06:00:09;;;;;;;;;6.00;3.00;;;;;18.85;55.85;101378.50;4871987;29;45532;-95
2023/07/20 06:02:34;;;;;;;;;5.00;4.00;;;;;19.01;55.76;101386.31;4853364;29;45892;-95
2023/07/20 06:05:00;;;;;;;;;5.00;5.00;;;;;19.02;55.94;101380.94;4884622;29;45603;-93
2023/07/20 06:07:25;;;;;;;;;3.50;3.50;;;;;19.07;56.11;101383.34;4875937;29;45417;-94
2023/07/20 06:09:50;;;;;;;;;3.67;3.00;;;;;18.98;56.29;101358.34;4865726;29;45360;-94
2023/07/20 06:12:16;;;;;;;;;3.25;3.00;;;;;19.13;56.04;101376.84;4878184;29;45292;-93
2023/07/20 06:14:41;;;;;;;;;3.00;2.50;;;;;19.06;55.56;101361.41;4869123;29;45820;-95
2023/07/20 06:17:06;;;;;;;;;3.33;3.33;;;;;19.14;55.90;101367.97;4884550;29;45361;-94
2023/07/20 06:19:32;;;;;;;;;4.00;3.67;;;;;19.27;55.90;101376.84;4868754;29;45598;-94
2023/07/20 06:21:57;;;;;;;;;3.67;3.67;;;;;19.27;55.76;101373.34;4868186;29;46865;-94
2023/07/20 06:24:22;;;;;;;;;3.00;1.67;;;;;19.34;55.73;101375.50;4877850;29;45406;-95
2023/07/20 06:26:48;;;;;;;;;4.00;4.00;;;;;19.36;55.77;101368.31;4861608;29;44921;-95
2023/07/20 06:29:13;;;;;;;;;5.00;5.00;;;;;19.35;55.85;101377.19;4860764;29;45697;-94
2023/07/20 06:31:39;;;;;;;;;3.67;3.67;;;;;19.53;55.65;101394.59;4876768;29;45319;-95
2023/07/20 06:34:04;;;;;;;;;4.33;3.00;;;;;19.54;55.37;101393.66;4868026;29;45510;-94
2023/07/20 06:36:29;;;;;;;;;4.00;4.00;;;;;19.57;55.44;101390.78;4869161;29;44950;-95
2023/07/20 06:38:55;;;;;;;;;2.33;2.33;;;;;19.60;55.20;101380.91;4873485;29;45317;-95
2023/07/20 06:41:21;;;;;;;;;5.00;5.00;;;;;19.69;55.26;101378.63;4866329;29;45453;-95
2023/07/20 06:43:47;;;;;;;;;3.00;3.00;;;;;19.74;54.85;101385.31;4850042;29;45334;-95
2023/07/20 06:46:12;;;;;;;;;3.00;2.67;;;;;19.63;54.72;101351.66;4883244;29;45341;-94
2023/07/20 06:48:38;;;;;;;;;5.75;3.00;;;;;19.79;54.62;101374.44;4868605;29;45405;-94
2023/07/20 06:51:03;;;;;;;;;3.00;3.00;;;;;19.72;55.00;101366.06;4863104;29;47008;-94
2023/07/20 06:53:30;;;;;;;;;6.50;4.00;;;;;19.70;54.67;101348.63;4885152;29;45232;-95
2023/07/20 06:55:56;;;;;;;;;3.50;3.50;;;;;19.83;54.60;101380.34;4883751;29;45421;-95
2023/07/20 06:58:23;;;;;;;;;4.75;4.00;;;;;19.81;54.99;101371.69;4868269;29;45320;-93
2023/07/20 07:00:48;;;;;;;;;4.00;4.00;;;;;19.77;54.07;101357.84;4884761;29;45979;-95
2023/07/20 07:03:21;;;;;;;;;3.00;3.00;;;;;19.92;54.48;101385.03;4882889;29;45376;-94
2023/07/20 07:05:49;;;;;;;;;2.33;2.33;;;;;19.95;54.63;101378.72;4883698;29;45391;-94
2023/07/20 07:08:17;;;;;;;;;4.50;4.00;;;;;19.93;54.35;101370.03;4883476;29;45321;-87
2023/07/20 07:10:43;;;;;;;;;5.00;3.75;;;;;20.03;54.24;101373.78;4883143;29;46715;-88
2023/07/20 07:13:08;;;;;;;;;6.00;3.00;;;;;19.93;53.87;101356.81;4873108;29;45442;-88
2023/07/20 07:15:34;;;;;;;;;8.00;5.00;;;;;19.98;54.27;101349.47;4871257;29;45240;-87
2023/07/20 07:18:00;;;;;;;;;3.67;3.67;;;;;20.13;53.84;101369.59;4880213;29;45524;-87
2023/07/20 07:20:26;;;;;;;;;3.33;3.33;;;;;20.13;53.60;101364.31;4878612;29;46515;-88
2023/07/20 07:22:52;;;;;;;;;3.50;3.50;;;;;20.23;53.54;101375.09;4873682;29;45503;-87
2023/07/20 07:25:19;;;;;;;;;3.33;2.00;;;;;20.31;53.46;101374.59;4867152;29;45323;-94
2023/07/20 07:27:44;;;;;;;;;5.00;3.00;;;;;20.25;53.20;101353.88;4855541;29;45619;-88
2023/07/20 07:30:10;;;;;;;;;4.00;4.00;;;;;20.37;52.70;101368.88;4899683;23;45988;-91
2023/07/20 07:33:03;;;;;;;;;5.00;3.33;;;;;20.45;52.75;101367.53;4881217;29;45643;-92
2023/07/20 07:35:29;;;;;;;;;6.67;4.67;;;;;20.45;53.11;101372.81;4865100;29;45454;-93
2023/07/20 07:37:55;;;;;;;;;5.00;3.33;;;;;20.52;52.50;101380.25;4864914;29;45286;-93
2023/07/20 07:40:23;;;;;;;;;5.67;3.67;;;;;20.55;52.62;101380.00;4880369;29;47160;-92
2023/07/20 07:42:48;;;;;;;;;2.67;2.67;;;;;20.60;52.51;101378.84;4883608;29;45295;-91
2023/07/20 07:45:14;;;;;;;;;6.67;4.00;;;;;20.63;52.47;101379.50;4885537;29;45350;-93
2023/07/20 07:47:40;;;;;;;;;5.00;5.00;;;;;20.68;52.45;101377.38;4884496;29;45606;-93
2023/07/20 07:50:06;;;;;;;;;3.75;3.25;;;;;20.73;52.35;101376.22;4889752;29;45763;-92
2023/07/20 07:52:32;;;;;;;;;3.33;3.33;;;;;20.83;52.32;101378.09;4890506;29;45313;-92
2023/07/20 07:54:58;;;;;;;;;3.33;3.00;;;;;20.84;52.35;101371.03;4884155;29;45521;-93
2023/07/20 07:57:23;;;;;;;;;5.50;3.50;;;;;20.89;51.98;101366.28;4882170;29;45497;-92
2023/07/20 07:59:50;;;;;;;;;5.00;3.67;;;;;20.92;51.85;101365.25;4879962;29;45582;-93
2023/07/20 08:02:15;;;;;;;;;6.00;4.00;;;;;21.02;51.66;101371.53;4880810;29;45462;-93
2023/07/20 08:04:40;;;;;;;;;6.33;3.33;;;;;21.08;52.04;101371.13;4881518;29;45512;-92
2023/07/20 08:07:06;;;;;;;;;3.33;3.33;;;;;21.15;51.56;101371.53;4883466;29;45301;-94
2023/07/20 08:09:32;;;;;;;;;5.67;5.00;;;;;21.18;51.76;101355.44;5297734;23;47213;-95
2023/07/20 08:12:23;;;;;;;;;7.00;4.00;;;;;21.36;51.58;101369.16;4862588;29;45305;-95
2023/07/20 08:14:48;;;;;;;;;4.00;4.00;;;;;21.37;51.11;101362.06;4847956;29;45464;-95
2023/07/20 08:17:14;;;;;;;;;5.67;4.00;;;;;21.39;50.94;101362.81;4849842;29;45550;-96
2023/07/20 08:19:41;;;;;;;;;5.25;4.50;;;;;21.43;50.95;101360.78;4848178;29;48533;-95
2023/07/20 08:22:07;;;;;;;;;5.75;4.00;;;;;21.42;50.87;101359.91;4846225;29;45432;-96
2023/07/20 08:24:33;;;;;;;;;4.00;4.00;;;;;21.43;50.60;101363.44;4837841;29;45469;-96
2023/07/20 08:27:01;;;;;;;;;3.33;2.00;;;;;21.43;50.35;101347.53;4849714;29;45283;-95
2023/07/20 08:29:26;;;;;;;;;2.00;2.00;;;;;21.45;49.92;101353.56;4863504;29;47106;-96
2023/07/20 08:31:52;;;;;;;;;4.00;2.00;;;;;21.41;49.88;101352.09;4864745;29;45455;-95
2023/07/20 08:34:17;;;;;;;;;4.25;4.00;;;;;21.40;49.92;101355.69;4847758;29;45348;-95
2023/07/20 08:36:43;;;;;;;;;6.00;5.00;;;;;21.40;49.91;101353.03;4852665;29;44799;-95
2023/07/20 08:39:08;;;;;;;;;6.75;4.00;;;;;21.40;49.98;101339.81;4839931;29;47121;-96
2023/07/20 08:41:35;;;;;;;;;2.33;2.33;;;;;21.47;50.23;101352.50;4859443;29;44831;-96
2023/07/20 08:44:01;;;;;;;;;3.00;3.00;;;;;21.57;49.33;101349.19;4869012;29;45538;-96
2023/07/20 08:46:27;;;;;;;;;3.00;2.50;;;;;21.66;49.74;101345.00;4850909;29;45982;-96
2023/07/20 08:48:55;;;;;;;;;2.00;2.00;;;;;21.74;49.32;101343.50;4868111;29;47641;-96
2023/07/20 08:51:21;;;;;;;;;2.00;2.00;;;;;21.84;48.83;101345.50;4854455;29;45466;-95
2023/07/20 08:53:49;;;;;;;;;2.33;2.33;;;;;21.94;48.93;101345.63;4853068;29;45451;-96
2023/07/20 08:56:20;;;;;;;;;2.00;2.00;;;;;22.00;49.55;101339.88;4866721;29;45367;-96
2023/07/20 08:58:46;;;;;;;;;3.00;3.00;;;;;22.21;49.22;101345.34;4845100;29;47186;-96
2023/07/20 09:01:12;;;;;;;;;2.00;2.00;;;;;22.32;48.84;101339.25;4862472;29;45486;-96
2023/07/20 13:02:55;;;;;;;;;0.00;0.00;;;;;29.63;28.57;101164.34;4910871;28;46614;-96
2023/07/20 13:05:27;;;;;;;;;0.00;0.00;;;;;29.52;28.18;101174.44;4944340;23;45339;-95
2023/07/20 13:08:13;;;;;;;;;1.00;1.00;;;;;29.43;27.77;101170.06;4899079;28;45359;-96
2023/07/20 13:10:39;;;;;;;;;0.00;0.00;;;;;29.30;28.14;101168.72;4905957;28;45619;-95
2023/07/20 13:13:04;;;;;;;;;1.00;0.00;;;;;29.21;27.95;101156.38;4905014;28;47181;-95
2023/07/20 13:15:32;;;;;;;;;1.00;0.00;;;;;29.13;27.92;101151.00;4903235;28;45883;-96
2023/07/20 13:17:58;;;;;;;;;0.00;0.00;;;;;29.11;27.71;101156.50;4898978;29;45489;-96
2023/07/20 13:20:24;;;;;;;;;0.00;0.00;;;;;29.11;28.08;101142.31;4889747;29;45361;-96
2023/07/20 13:22:49;;;;;;;;;0.33;0.33;;;;;29.19;27.64;101145.81;4897477;29;47216;-95
2023/07/20 13:25:14;;;;;;;;;0.67;0.00;;;;;29.26;27.53;101142.44;4895770;28;45361;-96
2023/07/20 13:27:40;;;;;;;;;0.33;0.00;;;;;29.29;27.54;101139.44;4904864;28;45575;-96
2023/07/20 13:30:07;;;;;;;;;0.67;0.67;;;;;29.32;27.75;101142.63;4920262;28;45289;-96
2023/07/20 13:32:33;;;;;;;;;1.00;1.00;;;;;29.33;27.36;101143.44;4921305;28;47493;-95
2023/07/20 13:34:59;;;;;;;;;0.67;0.00;;;;;29.38;27.74;101140.25;4905110;28;45376;-96
2023/07/20 13:37:24;;;;;;;;;0.00;0.00;;;;;29.34;27.37;101142.41;4907115;28;44786;-96
2023/07/20 13:39:49;;;;;;;;;2.00;1.00;;;;;29.32;27.35;101134.56;4907666;28;45282;-96
2023/07/20 13:42:15;;;;;;;;;1.00;1.00;;;;;29.42;27.66;101130.84;4912723;28;47023;-96
2023/07/20 13:44:41;;;;;;;;;2.00;2.00;;;;;29.57;27.69;101123.81;4904155;28;46091;-96
2023/07/20 13:47:06;;;;;;;;;0.33;0.33;;;;;29.69;27.34;101121.63;4907621;28;44870;-96
2023/07/20 13:49:32;;;;;;;;;1.00;1.00;;;;;29.80;27.18;101119.56;4908022;28;46109;-96
2023/07/20 13:51:58;;;;;;;;;0.00;0.00;;;;;29.92;27.17;101117.31;4907538;28;47142;-96
2023/07/20 13:54:24;;;;;;;;;2.00;0.33;;;;;30.04;26.32;101113.25;4909192;28;45488;-96
2023/07/20 13:56:50;;;;;;;;;0.00;0.00;;;;;30.12;26.80;101105.19;4902581;28;44884;-96
2023/07/20 13:59:15;;;;;;;;;2.00;0.00;;;;;30.18;26.60;101106.34;4892384;28;45528;-96
2023/07/20 14:01:41;;;;;;;;;0.00;0.00;;;;;30.26;26.94;101106.28;4901283;28;47167;-95
2023/07/20 14:04:07;;;;;;;;;0.00;0.00;;;;;30.33;26.34;101103.72;4889976;29;45269;-94
2023/07/20 14:06:33;;;;;;;;;0.00;0.00;;;;;30.42;26.58;101098.28;4884800;29;45272;-95
2023/07/20 14:08:59;;;;;;;;;4.00;1.00;;;;;30.48;26.12;101101.09;4902048;28;45300;-94
2023/07/20 14:11:25;;;;;;;;;0.00;0.00;;;;;30.60;26.44;101096.16;4903575;28;47798;-93
2023/07/20 14:13:52;;;;;;;;;0.67;0.67;;;;;30.74;25.89;101089.19;4903433;28;45540;-93
2023/07/20 14:16:18;;;;;;;;;0.67;0.67;;;;;30.80;25.82;101083.09;4905989;28;45351;-95
2023/07/20 14:18:47;;;;;;;;;0.67;0.67;;;;;30.77;25.87;101090.66;4904862;28;45432;-96
2023/07/20 14:21:12;;;;;;;;;0.00;0.00;;;;;30.77;25.46;101080.75;4905764;28;47164;-94
2023/07/20 14:23:37;;;;;;;;;1.67;0.00;;;;;30.72;25.95;101082.34;4905629;28;45442;-95
2023/07/20 14:26:05;;;;;;;;;0.00;0.00;;;;;30.72;25.68;101082.34;4904684;28;44978;-93
2023/07/20 14:28:31;;;;;;;;;0.33;0.33;;;;;30.73;26.14;101084.00;4905755;28;45424;-94
2023/07/20 14:30:57;;;;;;;;;0.00;0.00;;;;;30.67;25.43;101080.13;4904366;28;47637;-94
2023/07/20 14:33:22;;;;;;;;;1.67;1.00;;;;;30.63;25.45;101074.31;4922454;28;45400;-95
2023/07/20 14:35:48;;;;;;;;;0.33;0.00;;;;;30.61;25.80;101078.19;4904401;28;45342;-95
2023/07/20 14:38:13;;;;;;;;;1.00;0.00;;;;;30.60;25.73;101076.50;4904506;29;45278;-95
2023/07/20 14:40:38;;;;;;;;;0.00;0.00;;;;;30.55;25.30;101071.69;4903870;28;47243;-94
2023/07/20 14:43:04;;;;;;;;;0.00;0.00;;;;;30.54;25.61;101062.78;4904627;28;45447;-95
2023/07/20 14:45:29;;;;;;;;;1.00;1.00;;;;;30.59;25.82;101069.47;4903318;29;45524;-95
2023/07/20 14:47:54;;;;;;;;;0.00;0.00;;;;;30.62;25.88;101061.91;4904384;28;45422;-94
2023/07/20 14:50:21;;;;;;;;;0.00;0.00;;;;;30.61;26.14;101052.19;4906329;28;46946;-96
2023/07/20 14:52:46;;;;;;;;;0.00;0.00;;;;;30.61;25.92;101054.00;4903787;29;45504;-95
2023/07/20 14:55:12;;;;;;;;;0.00;0.00;;;;;30.55;25.62;101050.22;4904017;28;45281;-95
2023/07/20 14:57:38;;;;;;;;;0.00;0.00;;;;;30.49;25.33;101049.06;4889577;29;45244;-96
2023/07/20 15:00:10;;;;;;;;;1.00;1.00;;;;;30.46;26.03;101045.91;4898499;29;46974;-95
2023/07/20 15:02:39;;;;;;;;;0.00;0.00;;;;;30.43;25.72;101048.94;4905103;28;45897;-95
2023/07/20 15:05:08;;;;;;;;;0.00;0.00;;;;;30.36;25.69;101047.00;4903211;29;45139;-95
2023/07/20 15:07:34;;;;;;;;;0.00;0.00;;;;;30.30;25.18;101050.38;4908034;28;44804;-95
2023/07/20 15:10:00;;;;;;;;;0.00;0.00;;;;;30.26;25.82;101044.56;4908469;28;47132;-96
2023/07/20 15:12:26;;;;;;;;;0.33;0.33;;;;;30.22;25.45;101043.22;4903842;28;44775;-95
2023/07/20 15:15:12;;;;;;;;;0.67;0.67;;;;;30.17;25.23;101048.28;4907321;28;44846;-95
2023/07/20 15:17:39;;;;;;;;;0.00;0.00;;;;;30.17;25.46;101039.44;4906082;29;45449;-96
2023/07/20 15:20:06;;;;;;;;;1.00;1.00;;;;;30.10;25.19;101039.28;4915807;28;47181;-96
2023/07/20 15:22:33;;;;;;;;;0.33;0.33;;;;;30.03;25.63;101036.44;4913656;28;44734;-96
2023/07/20 15:25:00;;;;;;;;;1.00;1.00;;;;;30.01;25.91;101038.47;4919168;28;44779;-95
2023/07/20 15:27:25;;;;;;;;;0.33;0.00;;;;;30.00;25.25;101034.13;4908847;28;44854;-96
2023/07/20 15:29:51;;;;;;;;;0.00;0.00;;;;;30.04;25.79;101032.78;4908070;28;46830;-95
2023/07/20 15:32:18;;;;;;;;;1.00;0.00;;;;;30.05;25.89;101030.91;4896098;28;45453;-95
2023/07/20 15:34:44;;;;;;;;;0.00;0.00;;;;;30.06;25.01;101036.09;4915401;28;45445;-95
2023/07/20 15:37:10;;;;;;;;;0.00;0.00;;;;;30.00;25.53;101036.81;4916713;28;45421;-96
2023/07/20 15:39:36;;;;;;;;;0.00;0.00;;;;;29.89;25.46;101032.69;4893430;29;48605;-95
2023/07/20 15:42:02;;;;;;;;;2.00;0.00;;;;;29.77;25.19;101034.94;4903316;28;45195;-96
2023/07/20 15:44:28;;;;;;;;;0.33;0.33;;;;;29.66;25.31;101035.34;4902188;28;45414;-94
2023/07/20 15:46:53;;;;;;;;;1.67;0.33;;;;;29.57;25.20;101029.16;4894477;28;44999;-95
2023/07/20 15:49:19;;;;;;;;;0.67;0.67;;;;;29.40;25.65;101020.31;4919482;28;47150;-95
2023/07/20 15:51:46;;;;;;;;;0.00;0.00;;;;;29.36;25.11;101022.50;4902459;28;45389;-95
2023/07/20 15:54:12;;;;;;;;;0.67;0.67;;;;;29.32;25.29;101026.53;4900402;28;45596;-96
2023/07/20 15:56:39;;;;;;;;;0.00;0.00;;;;;29.26;25.25;101019.19;4888705;28;45235;-95
2023/07/20 15:59:06;;;;;;;;;0.00;0.00;;;;;29.21;25.47;101022.41;4891250;28;47391;-95
2023/07/20 16:01:31;;;;;;;;;0.00;0.00;;;;;29.12;25.63;101024.28;4899704;29;45522;-95
2023/07/20 16:03:57;;;;;;;;;1.00;1.00;;;;;29.03;25.91;101019.94;4901009;28;45486;-96
2023/07/20 16:06:23;;;;;;;;;1.00;1.00;;;;;28.97;25.74;101017.94;4888308;29;44945;-96
2023/07/20 16:08:50;;;;;;;;;0.33;0.33;;;;;28.87;26.18;101018.13;4898536;28;47377;-95
2023/07/20 16:11:15;;;;;;;;;0.67;0.67;;;;;28.79;26.06;101022.44;4908295;28;46180;-95
2023/07/20 16:13:41;;;;;;;;;0.67;0.67;;;;;28.72;26.28;101016.09;4895011;28;45154;-96
2023/07/20 16:16:06;;;;;;;;;2.00;1.00;;;;;28.70;26.54;101006.56;4895662;29;45836;-96
2023/07/20 16:18:32;;;;;;;;;0.33;0.00;;;;;28.67;26.24;101010.41;4891495;28;46938;-96
2023/07/20 16:20:58;;;;;;;;;0.00;0.00;;;;;28.64;26.37;101000.03;4896651;28;44920;-95
2023/07/20 16:23:23;;;;;;;;;2.00;0.67;;;;;28.59;26.33;100999.72;4893145;29;45323;-95
2023/07/20 16:25:49;;;;;;;;;1.00;1.00;;;;;28.60;26.33;101004.06;4902115;28;44883;-96
2023/07/20 16:28:15;;;;;;;;;0.00;0.00;;;;;28.58;26.50;101004.22;4903003;28;47099;-96
2023/07/20 16:30:41;;;;;;;;;0.00;0.00;;;;;28.53;26.59;101007.41;4904629;28;44913;-95
2023/07/20 16:33:07;;;;;;;;;0.00;0.00;;;;;28.50;26.34;101001.53;4894873;28;45463;-95
2023/07/20 16:35:40;;;;;;;;;1.00;0.00;;;;;28.43;26.81;101000.53;4886538;29;45013;-96
2023/07/20 16:38:06;;;;;;;;;2.00;1.00;;;;;28.30;26.61;100988.50;4888021;29;47598;-96
2023/07/20 16:40:32;;;;;;;;;0.67;0.67;;;;;28.19;26.78;100988.81;4889408;28;45463;-95
2023/07/20 16:42:57;;;;;;;;;1.67;1.67;;;;;28.13;26.80;100987.59;4900946;28;44894;-96
2023/07/20 16:45:23;;;;;;;;;2.00;1.00;;;;;28.07;26.76;100986.44;4902920;28;44921;-94
2023/07/20 16:47:48;;;;;;;;;2.00;1.00;;;;;28.01;26.88;100987.13;4901912;28;47330;-95
2023/07/20 16:50:14;;;;;;;;;0.00;0.00;;;;;27.96;26.79;100986.75;4888027;29;44844;-96
2023/07/20 16:52:40;;;;;;;;;0.33;0.33;;;;;27.94;27.28;100986.94;4895675;28;45391;-95
2023/07/20 16:55:06;;;;;;;;;1.00;1.00;;;;;27.91;27.19;100989.09;4903808;28;45375;-96
2023/07/20 16:57:31;;;;;;;;;1.33;1.33;;;;;27.82;27.08;100981.03;4903072;28;47310;-95
2023/07/20 16:59:57;;;;;;;;;0.67;0.67;;;;;27.77;27.03;100978.03;4899250;28;45314;-96
2023/07/20 17:02:22;;;;;;;;;2.00;1.00;;;;;27.72;27.57;100980.38;4893379;28;44864;-96
2023/07/20 17:04:49;;;;;;;;;1.00;1.00;;;;;27.67;27.39;100967.47;4895105;28;45124;-96
2023/07/20 17:07:14;;;;;;;;;0.00;0.00;;;;;27.65;27.40;100980.19;4893151;28;47557;-96
2023/07/20 17:09:40;;;;;;;;;0.67;0.67;;;;;27.61;27.63;100979.66;4921392;28;44918;-96
2023/07/20 17:12:07;;;;;;;;;0.67;0.67;;;;;27.58;27.49;100973.78;4901832;28;44803;-96
2023/07/20 17:14:33;;;;;;;;;1.00;1.00;;;;;27.54;27.42;100975.91;4904120;28;44899;-96
2023/07/20 17:16:59;;;;;;;;;0.67;0.00;;;;;27.52;27.70;100975.25;4891934;28;46897;-96
2023/07/20 17:19:24;;;;;;;;;0.00;0.00;;;;;27.50;27.19;100974.59;4900413;29;44933;-96
2023/07/20 17:21:50;;;;;;;;;0.67;0.67;;;;;27.45;27.34;100976.91;4900039;29;45073;-96
2023/07/20 17:24:16;;;;;;;;;1.00;1.00;;;;;27.42;27.46;100975.41;4889888;28;44777;-96
2023/07/20 17:26:41;;;;;;;;;1.00;1.00;;;;;27.39;27.81;100967.69;4901457;28;47073;-96
2023/07/20 17:29:07;;;;;;;;;0.00;0.00;;;;;27.37;27.96;100967.03;4902980;28;45303;-95
2023/07/20 17:31:32;;;;;;;;;0.67;0.67;;;;;27.35;28.26;100964.50;4889014;29;44718;-96
2023/07/20 17:33:59;;;;;;;;;2.00;1.00;;;;;27.34;27.89;100964.66;4918488;28;44775;-96
2023/07/20 17:36:25;;;;;;;;;1.33;0.33;;;;;27.31;28.59;100965.00;4900076;29;47175;-95
2023/07/20 17:38:50;;;;;;;;;1.67;1.00;;;;;27.30;28.83;100971.34;4897982;28;45318;-96
2023/07/20 17:41:16;;;;;;;;;2.00;1.00;;;;;27.27;29.16;100964.47;4884890;28;44852;-96
2023/07/20 17:43:41;;;;;;;;;0.33;0.33;;;;;27.25;29.68;100965.63;4901111;28;44908;-95
2023/07/20 17:46:06;;;;;;;;;3.00;2.00;;;;;27.22;29.80;100961.44;4898405;29;47617;-94
2023/07/20 17:48:33;;;;;;;;;2.00;2.00;;;;;27.16;29.04;100970.09;4902792;28;45816;-96
2023/07/20 17:50:58;;;;;;;;;0.33;0.00;;;;;27.10;28.60;100960.03;4899969;29;44711;-95
2023/07/20 17:53:25;;;;;;;;;1.00;1.00;;;;;27.08;28.81;100966.38;4909929;28;44982;-95
2023/07/20 17:55:51;;;;;;;;;2.33;2.33;;;;;27.05;29.20;100964.03;4898093;28;47087;-95
2023/07/20 17:58:16;;;;;;;;;0.67;0.67;;;;;27.01;29.61;100962.69;4884722;28;45399;-95
2023/07/20 18:00:42;;;;;;;;;1.00;1.00;;;;;26.98;29.62;100957.63;4900129;28;44873;-95
2023/07/20 18:03:07;;;;;;;;;0.00;0.00;;;;;26.96;29.91;100964.97;4900934;28;45549;-96
2023/07/20 18:05:35;;;;;;;;;2.00;2.00;;;;;26.93;30.09;100963.47;4914066;28;47209;-96
2023/07/20 18:08:04;;;;;;;;;0.00;0.00;;;;;26.90;29.82;100957.56;4912175;29;45038;-96
2023/07/20 18:10:32;;;;;;;;;0.67;0.67;;;;;26.89;29.87;100962.06;4918633;28;44869;-96
2023/07/20 18:12:58;;;;;;;;;0.67;0.67;;;;;26.85;29.53;100962.53;4928554;28;45370;-96
2023/07/20 18:15:24;;;;;;;;;1.00;1.00;;;;;26.80;30.38;100955.03;4906646;28;46871;-96
2023/07/20 18:17:50;;;;;;;;;1.00;1.00;;;;;26.77;29.74;100958.00;4917263;28;44762;-96
2023/07/20 18:20:15;;;;;;;;;2.00;1.00;;;;;26.72;29.52;100961.13;4915408;28;45089;-95
2023/07/20 18:22:41;;;;;;;;;1.00;1.00;;;;;26.68;29.67;100954.44;4889396;28;45087;-95
2023/07/20 18:25:07;;;;;;;;;2.67;2.67;;;;;26.63;29.68;100970.91;4890385;28;46715;-96
2023/07/20 18:27:32;;;;;;;;;0.67;0.67;;;;;26.60;30.23;100965.06;4900183;28;45467;-96
2023/07/20 18:29:58;;;;;;;;;0.33;0.33;;;;;26.54;29.60;100959.34;4897290;28;44810;-96
2023/07/20 18:32:25;;;;;;;;;1.00;0.00;;;;;26.54;29.92;100971.84;4884915;29;45035;-96
2023/07/20 18:34:50;;;;;;;;;2.67;0.67;;;;;26.50;29.87;100965.13;4899563;28;47458;-96
2023/07/20 18:37:20;;;;;;;;;0.00;0.00;;;;;26.47;29.52;100965.47;4895376;28;45038;-95
2023/07/20 18:39:46;;;;;;;;;1.00;1.00;;;;;26.44;29.88;100965.75;4916903;28;45364;-96
2023/07/20 18:42:12;;;;;;;;;1.33;1.33;;;;;26.41;29.30;100964.22;4890446;29;44925;-96
2023/07/20 18:44:37;;;;;;;;;0.00;0.00;;;;;26.37;29.58;100957.53;4899808;28;47190;-94
2023/07/20 18:47:03;;;;;;;;;1.00;1.00;;;;;26.38;29.71;100970.72;4902042;28;44870;-96
2023/07/20 18:49:29;;;;;;;;;1.00;1.00;;;;;26.33;29.92;100966.84;4888449;28;44853;-94
2023/07/20 18:51:55;;;;;;;;;1.00;1.00;;;;;26.31;29.98;100969.66;4897642;28;44976;-96
2023/07/20 18:54:20;;;;;;;;;1.33;1.00;;;;;26.25;29.72;100965.75;4897306;28;46632;-96
2023/07/20 18:56:46;;;;;;;;;2.00;1.00;;;;;26.21;29.93;100967.06;4885914;29;45181;-95
2023/07/20 18:59:12;;;;;;;;;1.00;1.00;;;;;26.20;29.59;100968.03;4886563;29;45349;-95
2023/07/20 19:01:37;;;;;;;;;0.33;0.00;;;;;26.18;29.80;100975.34;4902829;28;45429;-94
2023/07/20 19:04:03;;;;;;;;;0.00;0.00;;;;;26.13;29.71;100965.16;4904959;28;47472;-96
2023/07/20 19:06:28;;;;;;;;;2.00;1.00;;;;;26.07;29.45;100959.56;4893462;28;44948;-96
2023/07/20 19:08:54;;;;;;;;;0.33;0.33;;;;;26.05;29.85;100975.72;4907351;28;45384;-95
2023/07/20 19:11:20;;;;;;;;;1.00;0.00;;;;;26.04;29.54;100970.53;4899643;28;44864;-94
2023/07/20 19:13:45;;;;;;;;;4.00;2.00;;;;;26.01;29.55;100977.03;4906430;28;47286;-94
2023/07/20 19:16:11;;;;;;;;;0.00;0.00;;;;;25.98;29.77;100974.66;4900049;28;45484;-95
2023/07/20 19:18:37;;;;;;;;;1.00;1.00;;;;;25.93;29.56;100980.44;4897451;29;45193;-95
2023/07/20 19:21:03;;;;;;;;;2.33;1.00;;;;;25.91;29.93;100982.41;4892053;28;44842;-96
2023/07/20 19:23:31;;;;;;;;;0.00;0.00;;;;;25.86;29.78;100980.22;4900040;28;47305;-95
2023/07/20 19:25:56;;;;;;;;;1.00;1.00;;;;;25.82;30.08;100976.16;4894874;28;44924;-96
2023/07/20 19:28:22;;;;;;;;;2.33;1.00;;;;;25.78;29.95;100976.63;4887041;29;44723;-96
2023/07/20 19:30:48;;;;;;;;;0.00;0.00;;;;;25.77;29.84;100977.59;4888166;29;44977;-95
2023/07/20 19:33:13;;;;;;;;;1.00;0.67;;;;;25.73;30.00;100982.41;4890585;29;47092;-95
2023/07/20 19:35:40;;;;;;;;;1.67;1.00;;;;;25.70;30.22;100983.53;4903569;28;45193;-96
2023/07/20 19:38:06;;;;;;;;;1.00;1.00;;;;;25.67;29.87;100988.31;4912026;28;44796;-96
2023/07/20 19:40:34;;;;;;;;;1.00;1.00;;;;;25.61;29.90;100981.75;4905320;28;45399;-96
2023/07/20 19:43:00;;;;;;;;;1.00;1.00;;;;;25.57;30.11;100973.22;4912348;28;47057;-96
2023/07/20 19:45:27;;;;;;;;;3.00;1.00;;;;;25.52;29.78;100983.47;4927120;28;44752;-96
2023/07/20 19:47:55;;;;;;;;;1.00;1.00;;;;;25.49;29.93;100981.06;4932723;28;44796;-96
2023/07/20 19:50:20;;;;;;;;;0.00;0.00;;;;;25.47;29.95;100983.88;4904885;28;45702;-96
2023/07/20 19:52:45;;;;;;;;;1.33;1.33;;;;;25.42;30.12;100991.50;4892831;28;46824;-95
2023/07/20 19:55:11;;;;;;;;;1.33;1.33;;;;;25.39;30.27;100990.94;4890740;28;45023;-94
2023/07/20 19:57:37;;;;;;;;;2.00;2.00;;;;;25.36;30.40;100997.38;4902108;29;44847;-95
2023/07/20 20:00:07;;;;;;;;;3.00;2.33;;;;;25.32;30.23;101001.34;4904340;28;44952;-95
2023/07/20 20:02:33;;;;;;;;;5.75;5.75;;;;;25.29;30.66;101006.97;4919108;28;45814;-95
2023/07/20 20:04:58;;;;;;;;;2.67;2.67;;;;;25.26;30.28;101009.94;4893443;28;44830;-96
2023/07/20 20:07:24;;;;;;;;;4.00;3.00;;;;;25.23;30.50;101011.06;4896979;28;45291;-96
2023/07/20 20:09:50;;;;;;;;;2.67;2.67;;;;;25.16;30.64;101009.94;4918567;28;45340;-95
2023/07/20 20:12:18;;;;;;;;;1.67;1.67;;;;;25.12;30.30;101022.69;4898893;28;47647;-96
2023/07/20 20:14:43;;;;;;;;;1.67;1.67;;;;;25.07;30.94;101012.50;4893353;28;45310;-96
2023/07/20 20:17:09;;;;;;;;;3.00;2.33;;;;;25.07;31.02;101023.16;4890282;29;44908;-96
2023/07/20 20:19:34;;;;;;;;;2.00;2.00;;;;;25.01;31.06;101021.06;4894921;28;45483;-95
2023/07/20 20:22:04;;;;;;;;;0.67;0.00;;;;;25.00;30.57;101024.72;4892825;28;46633;-95
2023/07/20 20:24:30;;;;;;;;;4.00;2.67;;;;;24.97;30.68;101016.16;4900135;28;45953;-95
2023/07/20 20:26:59;;;;;;;;;1.00;1.00;;;;;24.94;30.62;101026.09;4892537;28;44919;-96
2023/07/20 20:29:24;;;;;;;;;3.00;1.00;;;;;24.89;30.64;101030.16;4895176;28;44863;-95
2023/07/20 20:31:49;;;;;;;;;2.00;2.00;;;;;24.84;31.69;101024.47;4899312;28;46898;-95
2023/07/20 21:43:58;;;;;;;;;2.67;2.67;;;;;23.96;36.34;101049.94;4887323;29;45350;-95
2023/07/20 21:46:24;;;;;;;;;1.33;1.00;;;;;23.92;36.30;101043.22;4877237;29;45296;-96
2023/07/20 21:48:49;;;;;;;;;2.00;2.00;;;;;23.90;36.42;101040.69;4888616;29;45633;-96
2023/07/20 21:51:17;;;;;;;;;2.67;2.67;;;;;23.89;36.18;101041.69;4878205;28;45835;-95
2023/07/20 21:53:42;;;;;;;;;1.67;1.67;;;;;23.86;36.55;101026.00;4876514;29;45574;-95
2023/07/20 21:56:08;;;;;;;;;1.00;1.00;;;;;23.84;36.42;101034.09;4888845;29;44927;-96
2023/07/20 21:58:33;;;;;;;;;3.67;2.33;;;;;23.82;36.79;101029.88;4876997;29;45609;-95
2023/07/20 22:01:02;;;;;;;;;2.00;2.00;;;;;23.77;36.79;101038.28;4885011;29;44893;-95
2023/07/20 22:03:28;;;;;;;;;1.00;1.00;;;;;23.74;36.83;101043.84;4881919;29;44791;-95
2023/07/20 22:06:03;;;;;;;;;2.67;2.00;;;;;23.71;36.99;101044.97;4883915;29;44981;-95
2023/07/20 22:08:29;;;;;;;;;4.33;1.33;;;;;23.66;37.07;101039.22;4893234;29;45702;-96
2023/07/20 22:10:54;;;;;;;;;1.33;1.33;;;;;23.60;37.03;101035.28;4900052;29;45388;-95
2023/07/20 22:13:20;;;;;;;;;2.00;2.00;;;;;23.58;37.03;101034.59;4899697;29;45458;-95
2023/07/20 22:15:46;;;;;;;;;1.33;0.33;;;;;23.55;37.12;101050.78;4874087;29;45384;-95
2023/07/20 22:18:11;;;;;;;;;2.33;0.67;;;;;23.52;37.11;101051.06;4881377;29;45646;-94
2023/07/20 22:20:38;;;;;;;;;1.00;0.33;;;;;23.49;37.35;101046.00;4881590;29;44740;-96
2023/07/20 22:23:04;;;;;;;;;1.33;1.33;;;;;23.43;37.76;101050.03;4887958;29;44768;-96
2023/07/20 22:25:29;;;;;;;;;1.67;1.67;;;;;23.38;37.42;101049.59;4900619;29;45546;-96